sensor_id;sensor_type;location;lat;lon;timestamp;temperature;humidity
65374;SHT31;52070;53.760;9.678;2024-02-15T00:01:42;10.81;99.37
65374;SHT31;52070;53.760;9.678;2024-02-15T00:04:09;10.82;99.42
65374;SHT31;52070;53.760;9.678;2024-02-15T00:06:38;10.82;99.40
65374;SHT31;52070;53.760;9.678;2024-02-15T00:09:05;10.85;99.38
65374;SHT31;52070;53.760;9.678;2024-02-15T00:11:32;10.87;99.42
65374;SHT31;52070;53.760;9.678;2024-02-15T00:13:59;10.84;99.40
65374;SHT31;52070;53.760;9.678;2024-02-15T00:16:26;10.84;99.40
65374;SHT31;52070;53.760;9.678;2024-02-15T00:18:53;10.85;99.45
65374;SHT31;52070;53.760;9.678;2024-02-15T00:21:20;10.87;99.37
65374;SHT31;52070;53.760;9.678;2024-02-15T00:23:49;10.85;99.45
65374;SHT31;52070;53.760;9.678;2024-02-15T00:26:16;10.84;99.46
65374;SHT31;52070;53.760;9.678;2024-02-15T00:28:43;10.87;99.44
65374;SHT31;52070;53.760;9.678;2024-02-15T00:31:10;10.89;99.45
65374;SHT31;52070;53.760;9.678;2024-02-15T00:33:37;10.87;99.47
65374;SHT31;52070;53.760;9.678;2024-02-15T00:36:05;10.88;99.46
65374;SHT31;52070;53.760;9.678;2024-02-15T00:38:32;10.88;99.49
65374;SHT31;52070;53.760;9.678;2024-02-15T00:41:00;10.88;99.47
65374;SHT31;52070;53.760;9.678;2024-02-15T00:43:28;10.87;99.48
65374;SHT31;52070;53.760;9.678;2024-02-15T00:45:56;10.91;99.50
65374;SHT31;52070;53.760;9.678;2024-02-15T00:48:23;10.89;99.49
65374;SHT31;52070;53.760;9.678;2024-02-15T00:50:52;10.92;99.52
65374;SHT31;52070;53.760;9.678;2024-02-15T00:53:19;10.88;99.50
65374;SHT31;52070;53.760;9.678;2024-02-15T00:55:46;10.88;99.50
65374;SHT31;52070;53.760;9.678;2024-02-15T00:58:15;10.91;99.53
65374;SHT31;52070;53.760;9.678;2024-02-15T01:00:42;10.91;99.50
65374;SHT31;52070;53.760;9.678;2024-02-15T01:03:08;10.91;99.54
65374;SHT31;52070;53.760;9.678;2024-02-15T01:05:35;10.92;99.55
65374;SHT31;52070;53.760;9.678;2024-02-15T01:08:03;10.92;99.57
65374;SHT31;52070;53.760;9.678;2024-02-15T01:10:31;10.92;99.55
65374;SHT31;52070;53.760;9.678;2024-02-15T01:12:59;10.95;99.54
65374;SHT31;52070;53.760;9.678;2024-02-15T01:15:27;10.94;99.55
65374;SHT31;52070;53.760;9.678;2024-02-15T01:17:55;10.92;99.58
65374;SHT31;52070;53.760;9.678;2024-02-15T01:20:22;10.89;99.57
65374;SHT31;52070;53.760;9.678;2024-02-15T01:22:49;10.92;99.56
65374;SHT31;52070;53.760;9.678;2024-02-15T01:25:17;10.94;99.58
65374;SHT31;52070;53.760;9.678;2024-02-15T01:27:44;10.94;99.58
65374;SHT31;52070;53.760;9.678;2024-02-15T01:30:12;10.94;99.57
65374;SHT31;52070;53.760;9.678;2024-02-15T01:32:40;10.94;99.58
65374;SHT31;52070;53.760;9.678;2024-02-15T01:35:08;10.94;99.58
65374;SHT31;52070;53.760;9.678;2024-02-15T01:37:35;10.97;99.59
65374;SHT31;52070;53.760;9.678;2024-02-15T01:40:05;10.97;99.59
65374;SHT31;52070;53.760;9.678;2024-02-15T01:42:32;10.94;99.55
65374;SHT31;52070;53.760;9.678;2024-02-15T01:44:59;10.92;99.58
65374;SHT31;52070;53.760;9.678;2024-02-15T01:47:27;10.94;99.56
65374;SHT31;52070;53.760;9.678;2024-02-15T01:49:56;10.95;99.59
65374;SHT31;52070;53.760;9.678;2024-02-15T01:52:23;10.92;99.56
65374;SHT31;52070;53.760;9.678;2024-02-15T01:54:51;10.92;99.58
65374;SHT31;52070;53.760;9.678;2024-02-15T01:57:19;10.91;99.55
65374;SHT31;52070;53.760;9.678;2024-02-15T01:59:49;10.94;99.54
65374;SHT31;52070;53.760;9.678;2024-02-15T02:02:18;10.92;99.54
65374;SHT31;52070;53.760;9.678;2024-02-15T02:04:47;10.91;99.53
65374;SHT31;52070;53.760;9.678;2024-02-15T02:07:15;10.91;99.54
65374;SHT31;52070;53.760;9.678;2024-02-15T02:09:42;10.91;99.50
65374;SHT31;52070;53.760;9.678;2024-02-15T02:12:11;10.91;99.52
65374;SHT31;52070;53.760;9.678;2024-02-15T02:14:38;10.89;99.53
65374;SHT31;52070;53.760;9.678;2024-02-15T02:17:11;10.89;99.55
65374;SHT31;52070;53.760;9.678;2024-02-15T02:19:39;10.92;99.53
65374;SHT31;52070;53.760;9.678;2024-02-15T02:22:07;10.88;99.50
65374;SHT31;52070;53.760;9.678;2024-02-15T02:24:42;10.89;99.50
65374;SHT31;52070;53.760;9.678;2024-02-15T02:27:13;10.92;99.53
65374;SHT31;52070;53.760;9.678;2024-02-15T02:29:42;10.94;99.50
65374;SHT31;52070;53.760;9.678;2024-02-15T02:32:11;10.89;99.47
65374;SHT31;52070;53.760;9.678;2024-02-15T02:34:38;10.91;99.47
65374;SHT31;52070;53.760;9.678;2024-02-15T02:37:06;10.92;99.48
65374;SHT31;52070;53.760;9.678;2024-02-15T02:39:34;10.92;99.48
65374;SHT31;52070;53.760;9.678;2024-02-15T02:42:01;10.94;99.45
65374;SHT31;52070;53.760;9.678;2024-02-15T02:44:29;10.91;99.46
65374;SHT31;52070;53.760;9.678;2024-02-15T02:46:56;10.91;99.44
65374;SHT31;52070;53.760;9.678;2024-02-15T02:49:23;10.92;99.48
65374;SHT31;52070;53.760;9.678;2024-02-15T02:51:50;10.88;99.43
65374;SHT31;52070;53.760;9.678;2024-02-15T02:54:17;10.89;99.46
65374;SHT31;52070;53.760;9.678;2024-02-15T02:56:44;10.92;99.47
65374;SHT31;52070;53.760;9.678;2024-02-15T02:59:11;10.95;99.44
65374;SHT31;52070;53.760;9.678;2024-02-15T03:01:40;10.94;99.41
65374;SHT31;52070;53.760;9.678;2024-02-15T03:04:08;10.94;99.41
65374;SHT31;52070;53.760;9.678;2024-02-15T03:06:35;10.95;99.41
65374;SHT31;52070;53.760;9.678;2024-02-15T03:09:02;10.92;99.41
65374;SHT31;52070;53.760;9.678;2024-02-15T03:11:32;10.92;99.38
65374;SHT31;52070;53.760;9.678;2024-02-15T03:14:00;10.95;99.37
65374;SHT31;52070;53.760;9.678;2024-02-15T03:16:30;10.92;99.39
65374;SHT31;52070;53.760;9.678;2024-02-15T03:18:58;10.94;99.36
65374;SHT31;52070;53.760;9.678;2024-02-15T03:21:26;10.94;99.32
65374;SHT31;52070;53.760;9.678;2024-02-15T03:23:53;10.92;99.34
65374;SHT31;52070;53.760;9.678;2024-02-15T03:26:29;10.95;99.35
65374;SHT31;52070;53.760;9.678;2024-02-15T03:28:56;10.92;99.32
65374;SHT31;52070;53.760;9.678;2024-02-15T03:31:23;10.95;99.27
65374;SHT31;52070;53.760;9.678;2024-02-15T03:33:50;10.98;99.27
65374;SHT31;52070;53.760;9.678;2024-02-15T03:36:20;10.97;99.30
65374;SHT31;52070;53.760;9.678;2024-02-15T03:38:47;10.98;99.26
65374;SHT31;52070;53.760;9.678;2024-02-15T03:41:14;11.02;99.26
65374;SHT31;52070;53.760;9.678;2024-02-15T03:43:41;11.07;99.25
65374;SHT31;52070;53.760;9.678;2024-02-15T03:46:08;11.05;99.25
65374;SHT31;52070;53.760;9.678;2024-02-15T03:48:38;11.02;99.22
65374;SHT31;52070;53.760;9.678;2024-02-15T03:51:05;11.02;99.19
65374;SHT31;52070;53.760;9.678;2024-02-15T03:53:33;11.02;99.24
65374;SHT31;52070;53.760;9.678;2024-02-15T03:56:03;11.02;99.18
65374;SHT31;52070;53.760;9.678;2024-02-15T03:58:30;11.02;99.21
65374;SHT31;52070;53.760;9.678;2024-02-15T04:00:58;10.99;99.18
65374;SHT31;52070;53.760;9.678;2024-02-15T04:03:25;11.05;99.16
65374;SHT31;52070;53.760;9.678;2024-02-15T04:05:52;11.05;99.18
65374;SHT31;52070;53.760;9.678;2024-02-15T04:08:20;11.09;99.15
65374;SHT31;52070;53.760;9.678;2024-02-15T04:10:49;11.08;99.11
65374;SHT31;52070;53.760;9.678;2024-02-15T04:13:16;11.09;99.06
65374;SHT31;52070;53.760;9.678;2024-02-15T04:15:43;11.11;99.05
65374;SHT31;52070;53.760;9.678;2024-02-15T04:18:12;11.07;99.03
65374;SHT31;52070;53.760;9.678;2024-02-15T04:20:40;11.09;98.98
65374;SHT31;52070;53.760;9.678;2024-02-15T04:23:10;11.14;98.95
65374;SHT31;52070;53.760;9.678;2024-02-15T04:25:37;11.09;98.93
65374;SHT31;52070;53.760;9.678;2024-02-15T04:28:06;11.09;98.93
65374;SHT31;52070;53.760;9.678;2024-02-15T04:30:34;11.09;98.87
65374;SHT31;52070;53.760;9.678;2024-02-15T04:33:04;11.09;98.84
65374;SHT31;52070;53.760;9.678;2024-02-15T04:35:31;11.08;98.84
65374;SHT31;52070;53.760;9.678;2024-02-15T04:37:58;11.08;98.85
65374;SHT31;52070;53.760;9.678;2024-02-15T04:40:25;11.09;98.82
65374;SHT31;52070;53.760;9.678;2024-02-15T04:42:52;11.09;98.83
65374;SHT31;52070;53.760;9.678;2024-02-15T04:45:20;11.08;98.78
65374;SHT31;52070;53.760;9.678;2024-02-15T04:47:48;11.09;98.82
65374;SHT31;52070;53.760;9.678;2024-02-15T04:50:18;11.07;98.82
65374;SHT31;52070;53.760;9.678;2024-02-15T04:52:46;11.08;98.82
65374;SHT31;52070;53.760;9.678;2024-02-15T04:55:15;11.05;98.86
65374;SHT31;52070;53.760;9.678;2024-02-15T04:57:43;11.04;98.82
65374;SHT31;52070;53.760;9.678;2024-02-15T05:00:13;11.02;98.86
65374;SHT31;52070;53.760;9.678;2024-02-15T05:02:42;11.08;98.87
65374;SHT31;52070;53.760;9.678;2024-02-15T05:05:10;11.02;98.85
65374;SHT31;52070;53.760;9.678;2024-02-15T05:07:38;11.04;98.91
65374;SHT31;52070;53.760;9.678;2024-02-15T05:10:07;11.07;98.88
65374;SHT31;52070;53.760;9.678;2024-02-15T05:12:36;11.04;98.88
65374;SHT31;52070;53.760;9.678;2024-02-15T05:15:04;11.07;98.90
65374;SHT31;52070;53.760;9.678;2024-02-15T05:17:37;11.08;98.97
65374;SHT31;52070;53.760;9.678;2024-02-15T05:20:08;11.07;98.95
65374;SHT31;52070;53.760;9.678;2024-02-15T05:22:39;11.09;98.97
65374;SHT31;52070;53.760;9.678;2024-02-15T05:25:09;11.08;98.98
65374;SHT31;52070;53.760;9.678;2024-02-15T05:27:38;11.07;98.95
65374;SHT31;52070;53.760;9.678;2024-02-15T05:30:06;11.07;98.97
65374;SHT31;52070;53.760;9.678;2024-02-15T05:32:34;11.07;98.99
65374;SHT31;52070;53.760;9.678;2024-02-15T05:35:09;11.07;98.95
65374;SHT31;52070;53.760;9.678;2024-02-15T05:37:36;11.05;99.00
65374;SHT31;52070;53.760;9.678;2024-02-15T05:40:04;11.05;98.99
65374;SHT31;52070;53.760;9.678;2024-02-15T05:42:32;11.07;99.01
65374;SHT31;52070;53.760;9.678;2024-02-15T05:45:27;11.08;99.01
65374;SHT31;52070;53.760;9.678;2024-02-15T05:47:58;11.09;99.04
65374;SHT31;52070;53.760;9.678;2024-02-15T05:50:27;11.09;99.00
65374;SHT31;52070;53.760;9.678;2024-02-15T05:52:56;11.11;99.05
65374;SHT31;52070;53.760;9.678;2024-02-15T05:55:24;11.11;99.08
65374;SHT31;52070;53.760;9.678;2024-02-15T05:57:52;11.11;99.04
65374;SHT31;52070;53.760;9.678;2024-02-15T06:00:20;11.11;99.08
65374;SHT31;52070;53.760;9.678;2024-02-15T06:02:47;11.12;99.08
65374;SHT31;52070;53.760;9.678;2024-02-15T06:05:15;11.12;99.06
65374;SHT31;52070;53.760;9.678;2024-02-15T06:07:44;11.11;99.09
65374;SHT31;52070;53.760;9.678;2024-02-15T06:10:12;11.11;99.08
65374;SHT31;52070;53.760;9.678;2024-02-15T06:12:41;11.12;99.07
65374;SHT31;52070;53.760;9.678;2024-02-15T06:15:09;11.12;99.11
65374;SHT31;52070;53.760;9.678;2024-02-15T06:17:41;11.12;99.09
65374;SHT31;52070;53.760;9.678;2024-02-15T06:20:11;11.15;99.10
65374;SHT31;52070;53.760;9.678;2024-02-15T06:22:40;11.14;99.13
65374;SHT31;52070;53.760;9.678;2024-02-15T06:25:10;11.15;99.09
65374;SHT31;52070;53.760;9.678;2024-02-15T06:27:37;11.16;99.09
65374;SHT31;52070;53.760;9.678;2024-02-15T06:30:07;11.15;99.12
65374;SHT31;52070;53.760;9.678;2024-02-15T06:32:52;11.16;99.09
65374;SHT31;52070;53.760;9.678;2024-02-15T06:35:37;11.18;99.09
65374;SHT31;52070;53.760;9.678;2024-02-15T06:38:22;11.15;99.07
65374;SHT31;52070;53.760;9.678;2024-02-15T06:41:08;11.14;99.02
65374;SHT31;52070;53.760;9.678;2024-02-15T06:43:35;11.16;99.03
65374;SHT31;52070;53.760;9.678;2024-02-15T06:46:06;11.18;99.01
65374;SHT31;52070;53.760;9.678;2024-02-15T06:48:33;11.18;98.93
65374;SHT31;52070;53.760;9.678;2024-02-15T06:51:00;11.15;98.90
65374;SHT31;52070;53.760;9.678;2024-02-15T06:53:29;11.16;98.88
65374;SHT31;52070;53.760;9.678;2024-02-15T06:55:56;11.18;98.83
65374;SHT31;52070;53.760;9.678;2024-02-15T06:58:24;11.15;98.78
65374;SHT31;52070;53.760;9.678;2024-02-15T07:00:53;11.16;98.75
65374;SHT31;52070;53.760;9.678;2024-02-15T07:03:20;11.16;98.70
65374;SHT31;52070;53.760;9.678;2024-02-15T07:05:48;11.15;98.68
65374;SHT31;52070;53.760;9.678;2024-02-15T07:08:15;11.14;98.62
65374;SHT31;52070;53.760;9.678;2024-02-15T07:10:42;11.12;98.62
65374;SHT31;52070;53.760;9.678;2024-02-15T07:13:09;11.12;98.62
65374;SHT31;52070;53.760;9.678;2024-02-15T07:15:38;11.16;98.62
65374;SHT31;52070;53.760;9.678;2024-02-15T07:18:05;11.14;98.58
65374;SHT31;52070;53.760;9.678;2024-02-15T07:20:33;11.15;98.59
65374;SHT31;52070;53.760;9.678;2024-02-15T07:23:00;11.12;98.55
65374;SHT31;52070;53.760;9.678;2024-02-15T07:25:26;11.12;98.49
65374;SHT31;52070;53.760;9.678;2024-02-15T07:27:53;11.11;98.49
65374;SHT31;52070;53.760;9.678;2024-02-15T07:30:22;11.12;98.47
65374;SHT31;52070;53.760;9.678;2024-02-15T07:32:51;11.09;98.47
65374;SHT31;52070;53.760;9.678;2024-02-15T07:35:18;11.14;98.47
65374;SHT31;52070;53.760;9.678;2024-02-15T07:37:51;11.14;98.42
65374;SHT31;52070;53.760;9.678;2024-02-15T07:40:21;11.14;98.45
65374;SHT31;52070;53.760;9.678;2024-02-15T07:42:48;11.09;98.43
65374;SHT31;52070;53.760;9.678;2024-02-15T07:45:16;11.12;98.39
65374;SHT31;52070;53.760;9.678;2024-02-15T07:47:43;11.12;98.43
65374;SHT31;52070;53.760;9.678;2024-02-15T07:50:15;11.14;98.39
65374;SHT31;52070;53.760;9.678;2024-02-15T07:52:46;11.15;98.38
65374;SHT31;52070;53.760;9.678;2024-02-15T07:55:13;11.14;98.41
65374;SHT31;52070;53.760;9.678;2024-02-15T07:57:40;11.12;98.42
65374;SHT31;52070;53.760;9.678;2024-02-15T08:00:08;11.11;98.40
65374;SHT31;52070;53.760;9.678;2024-02-15T08:02:38;11.16;98.40
65374;SHT31;52070;53.760;9.678;2024-02-15T08:05:07;11.16;98.39
65374;SHT31;52070;53.760;9.678;2024-02-15T08:07:40;11.14;98.36
65374;SHT31;52070;53.760;9.678;2024-02-15T08:10:08;11.16;98.34
65374;SHT31;52070;53.760;9.678;2024-02-15T08:12:39;11.15;98.39
65374;SHT31;52070;53.760;9.678;2024-02-15T08:15:07;11.12;98.36
65374;SHT31;52070;53.760;9.678;2024-02-15T08:17:38;11.14;98.37
65374;SHT31;52070;53.760;9.678;2024-02-15T08:20:07;11.19;98.33
65374;SHT31;52070;53.760;9.678;2024-02-15T08:22:35;11.16;98.28
65374;SHT31;52070;53.760;9.678;2024-02-15T08:25:08;11.14;98.33
65374;SHT31;52070;53.760;9.678;2024-02-15T08:27:37;11.16;98.31
65374;SHT31;52070;53.760;9.678;2024-02-15T08:30:08;11.19;98.30
65374;SHT31;52070;53.760;9.678;2024-02-15T08:32:36;11.18;98.33
65374;SHT31;52070;53.760;9.678;2024-02-15T08:35:05;11.19;98.32
65374;SHT31;52070;53.760;9.678;2024-02-15T08:37:34;11.18;98.35
65374;SHT31;52070;53.760;9.678;2024-02-15T08:40:02;11.19;98.39
65374;SHT31;52070;53.760;9.678;2024-02-15T08:42:31;11.22;98.40
65374;SHT31;52070;53.760;9.678;2024-02-15T08:44:58;11.28;98.45
65374;SHT31;52070;53.760;9.678;2024-02-15T08:47:25;11.25;98.44
65374;SHT31;52070;53.760;9.678;2024-02-15T08:49:52;11.31;98.47
65374;SHT31;52070;53.760;9.678;2024-02-15T08:52:19;11.28;98.48
65374;SHT31;52070;53.760;9.678;2024-02-15T08:54:46;11.29;98.51
65374;SHT31;52070;53.760;9.678;2024-02-15T08:57:13;11.28;98.54
65374;SHT31;52070;53.760;9.678;2024-02-15T08:59:42;11.31;98.59
65374;SHT31;52070;53.760;9.678;2024-02-15T09:02:08;11.32;98.57
65374;SHT31;52070;53.760;9.678;2024-02-15T09:04:35;11.35;98.57
65374;SHT31;52070;53.760;9.678;2024-02-15T09:07:02;11.36;98.65
65374;SHT31;52070;53.760;9.678;2024-02-15T09:09:30;11.40;98.66
65374;SHT31;52070;53.760;9.678;2024-02-15T09:12:01;11.35;98.65
65374;SHT31;52070;53.760;9.678;2024-02-15T09:14:30;11.39;98.69
65374;SHT31;52070;53.760;9.678;2024-02-15T09:16:59;11.43;98.68
65374;SHT31;52070;53.760;9.678;2024-02-15T09:19:26;11.46;98.68
65374;SHT31;52070;53.760;9.678;2024-02-15T09:21:52;11.43;98.72
65374;SHT31;52070;53.760;9.678;2024-02-15T09:24:20;11.46;98.73
65374;SHT31;52070;53.760;9.678;2024-02-15T09:26:47;11.49;98.76
65374;SHT31;52070;53.760;9.678;2024-02-15T09:29:14;11.55;98.74
65374;SHT31;52070;53.760;9.678;2024-02-15T09:31:41;11.56;98.71
65374;SHT31;52070;53.760;9.678;2024-02-15T09:34:10;11.63;98.73
65374;SHT31;52070;53.760;9.678;2024-02-15T09:36:39;11.63;98.77
65374;SHT31;52070;53.760;9.678;2024-02-15T09:39:06;11.67;98.76
65374;SHT31;52070;53.760;9.678;2024-02-15T09:41:33;11.67;98.77
65374;SHT31;52070;53.760;9.678;2024-02-15T09:44:00;11.72;98.71
65374;SHT31;52070;53.760;9.678;2024-02-15T09:46:29;11.73;98.72
65374;SHT31;52070;53.760;9.678;2024-02-15T09:48:57;11.74;98.72
65374;SHT31;52070;53.760;9.678;2024-02-15T09:51:27;11.76;98.67
65374;SHT31;52070;53.760;9.678;2024-02-15T09:53:57;11.77;98.68
65374;SHT31;52070;53.760;9.678;2024-02-15T09:56:24;11.76;98.67
65374;SHT31;52070;53.760;9.678;2024-02-15T09:58:54;11.76;98.69
65374;SHT31;52070;53.760;9.678;2024-02-15T10:01:23;11.82;98.70
65374;SHT31;52070;53.760;9.678;2024-02-15T10:03:50;11.82;98.68
65374;SHT31;52070;53.760;9.678;2024-02-15T10:06:18;11.90;98.66
65374;SHT31;52070;53.760;9.678;2024-02-15T10:08:46;11.90;98.62
65374;SHT31;52070;53.760;9.678;2024-02-15T10:11:13;11.87;98.62
65374;SHT31;52070;53.760;9.678;2024-02-15T10:13:41;11.93;98.64
65374;SHT31;52070;53.760;9.678;2024-02-15T10:16:19;11.91;98.62
65374;SHT31;52070;53.760;9.678;2024-02-15T10:18:50;11.97;98.60
65374;SHT31;52070;53.760;9.678;2024-02-15T10:21:24;11.93;98.60
65374;SHT31;52070;53.760;9.678;2024-02-15T10:24:04;11.97;98.59
65374;SHT31;52070;53.760;9.678;2024-02-15T10:26:32;12.03;98.57
65374;SHT31;52070;53.760;9.678;2024-02-15T10:29:05;12.01;98.55
65374;SHT31;52070;53.760;9.678;2024-02-15T10:31:35;12.04;98.50
65374;SHT31;52070;53.760;9.678;2024-02-15T10:34:04;12.12;98.48
65374;SHT31;52070;53.760;9.678;2024-02-15T10:36:31;12.12;98.50
65374;SHT31;52070;53.760;9.678;2024-02-15T10:39:14;12.17;98.45
65374;SHT31;52070;53.760;9.678;2024-02-15T10:41:46;12.17;98.45
65374;SHT31;52070;53.760;9.678;2024-02-15T10:44:15;12.18;98.42
65374;SHT31;52070;53.760;9.678;2024-02-15T10:46:44;12.21;98.37
65374;SHT31;52070;53.760;9.678;2024-02-15T10:49:12;12.23;98.34
65374;SHT31;52070;53.760;9.678;2024-02-15T10:51:44;12.23;98.35
65374;SHT31;52070;53.760;9.678;2024-02-15T10:54:18;12.24;98.23
65374;SHT31;52070;53.760;9.678;2024-02-15T10:56:51;12.28;98.20
65374;SHT31;52070;53.760;9.678;2024-02-15T10:59:24;12.31;98.22
65374;SHT31;52070;53.760;9.678;2024-02-15T11:01:59;12.28;98.16
65374;SHT31;52070;53.760;9.678;2024-02-15T11:04:31;12.37;98.08
65374;SHT31;52070;53.760;9.678;2024-02-15T11:06:59;12.34;98.05
65374;SHT31;52070;53.760;9.678;2024-02-15T11:09:29;12.35;98.02
65374;SHT31;52070;53.760;9.678;2024-02-15T11:11:56;12.37;97.97
65374;SHT31;52070;53.760;9.678;2024-02-15T11:14:25;12.40;97.95
65374;SHT31;52070;53.760;9.678;2024-02-15T11:16:54;12.42;97.95
65374;SHT31;52070;53.760;9.678;2024-02-15T11:19:43;12.45;97.98
65374;SHT31;52070;53.760;9.678;2024-02-15T11:22:13;12.42;97.91
65374;SHT31;52070;53.760;9.678;2024-02-15T11:24:49;12.37;97.90
65374;SHT31;52070;53.760;9.678;2024-02-15T11:27:26;12.34;97.85
65374;SHT31;52070;53.760;9.678;2024-02-15T11:29:56;12.34;97.83
65374;SHT31;52070;53.760;9.678;2024-02-15T11:32:40;12.37;97.81
65374;SHT31;52070;53.760;9.678;2024-02-15T11:35:10;12.35;97.80
65374;SHT31;52070;53.760;9.678;2024-02-15T11:37:54;12.35;97.75
65374;SHT31;52070;53.760;9.678;2024-02-15T11:40:26;12.40;97.78
65374;SHT31;52070;53.760;9.678;2024-02-15T11:42:55;12.40;97.80
65374;SHT31;52070;53.760;9.678;2024-02-15T11:45:25;12.28;97.80
65374;SHT31;52070;53.760;9.678;2024-02-15T11:47:58;12.31;97.82
65374;SHT31;52070;53.760;9.678;2024-02-15T11:50:27;12.33;97.85
65374;SHT31;52070;53.760;9.678;2024-02-15T11:53:02;12.33;97.90
65374;SHT31;52070;53.760;9.678;2024-02-15T11:55:33;12.34;97.91
65374;SHT31;52070;53.760;9.678;2024-02-15T11:58:01;12.33;97.96
65374;SHT31;52070;53.760;9.678;2024-02-15T12:00:31;12.30;97.98
65374;SHT31;52070;53.760;9.678;2024-02-15T12:03:18;12.25;98.05
65374;SHT31;52070;53.760;9.678;2024-02-15T12:06:03;12.24;98.08
65374;SHT31;52070;53.760;9.678;2024-02-15T12:08:49;12.27;98.12
65374;SHT31;52070;53.760;9.678;2024-02-15T12:11:35;12.31;98.17
65374;SHT31;52070;53.760;9.678;2024-02-15T12:14:20;12.25;98.21
65374;SHT31;52070;53.760;9.678;2024-02-15T12:17:06;12.31;98.23
65374;SHT31;52070;53.760;9.678;2024-02-15T12:19:51;12.30;98.26
65374;SHT31;52070;53.760;9.678;2024-02-15T12:22:21;12.27;98.28
65374;SHT31;52070;53.760;9.678;2024-02-15T12:24:58;12.25;98.34
65374;SHT31;52070;53.760;9.678;2024-02-15T12:27:27;12.20;98.31
65374;SHT31;52070;53.760;9.678;2024-02-15T12:29:55;12.23;98.32
65374;SHT31;52070;53.760;9.678;2024-02-15T12:32:24;12.24;98.34
65374;SHT31;52070;53.760;9.678;2024-02-15T12:34:51;12.24;98.32
65374;SHT31;52070;53.760;9.678;2024-02-15T12:37:19;12.20;98.36
65374;SHT31;52070;53.760;9.678;2024-02-15T12:39:47;12.20;98.38
65374;SHT31;52070;53.760;9.678;2024-02-15T12:42:16;12.20;98.39
65374;SHT31;52070;53.760;9.678;2024-02-15T12:44:47;12.18;98.36
65374;SHT31;52070;53.760;9.678;2024-02-15T12:47:18;12.18;98.44
65374;SHT31;52070;53.760;9.678;2024-02-15T12:49:45;12.20;98.41
65374;SHT31;52070;53.760;9.678;2024-02-15T12:52:33;12.20;98.42
65374;SHT31;52070;53.760;9.678;2024-02-15T12:55:14;12.20;98.41
65374;SHT31;52070;53.760;9.678;2024-02-15T12:57:43;12.25;98.42
65374;SHT31;52070;53.760;9.678;2024-02-15T13:00:17;12.21;98.39
65374;SHT31;52070;53.760;9.678;2024-02-15T13:02:46;12.23;98.39
65374;SHT31;52070;53.760;9.678;2024-02-15T13:05:15;12.21;98.40
65374;SHT31;52070;53.760;9.678;2024-02-15T13:07:44;12.25;98.43
65374;SHT31;52070;53.760;9.678;2024-02-15T13:10:11;12.25;98.38
65374;SHT31;52070;53.760;9.678;2024-02-15T13:12:40;12.25;98.41
65374;SHT31;52070;53.760;9.678;2024-02-15T13:15:09;12.28;98.36
65374;SHT31;52070;53.760;9.678;2024-02-15T13:17:43;12.24;98.36
65374;SHT31;52070;53.760;9.678;2024-02-15T13:20:11;12.21;98.31
65374;SHT31;52070;53.760;9.678;2024-02-15T13:22:39;12.24;98.29
65374;SHT31;52070;53.760;9.678;2024-02-15T13:25:07;12.20;98.29
65374;SHT31;52070;53.760;9.678;2024-02-15T13:27:35;12.20;98.30
65374;SHT31;52070;53.760;9.678;2024-02-15T13:30:05;12.21;98.26
65374;SHT31;52070;53.760;9.678;2024-02-15T13:32:35;12.20;98.28
65374;SHT31;52070;53.760;9.678;2024-02-15T13:35:06;12.24;98.28
65374;SHT31;52070;53.760;9.678;2024-02-15T13:37:41;12.20;98.17
65374;SHT31;52070;53.760;9.678;2024-02-15T13:40:10;12.20;98.20
65374;SHT31;52070;53.760;9.678;2024-02-15T13:42:42;12.18;98.20
65374;SHT31;52070;53.760;9.678;2024-02-15T13:45:13;12.18;98.14
65374;SHT31;52070;53.760;9.678;2024-02-15T13:47:40;12.18;98.19
65374;SHT31;52070;53.760;9.678;2024-02-15T13:50:09;12.18;98.13
65374;SHT31;52070;53.760;9.678;2024-02-15T13:52:40;12.20;98.13
65374;SHT31;52070;53.760;9.678;2024-02-15T13:55:09;12.16;98.12
65374;SHT31;52070;53.760;9.678;2024-02-15T13:57:38;12.17;98.06
65374;SHT31;52070;53.760;9.678;2024-02-15T14:00:07;12.17;98.13
65374;SHT31;52070;53.760;9.678;2024-02-15T14:02:40;12.14;98.15
65374;SHT31;52070;53.760;9.678;2024-02-15T14:05:09;12.16;98.10
65374;SHT31;52070;53.760;9.678;2024-02-15T14:07:37;12.18;98.10
65374;SHT31;52070;53.760;9.678;2024-02-15T14:10:05;12.17;98.06
65374;SHT31;52070;53.760;9.678;2024-02-15T14:12:33;12.17;98.05
65374;SHT31;52070;53.760;9.678;2024-02-15T14:15:00;12.16;98.03
65374;SHT31;52070;53.760;9.678;2024-02-15T14:17:27;12.17;98.03
65374;SHT31;52070;53.760;9.678;2024-02-15T14:19:54;12.17;98.06
65374;SHT31;52070;53.760;9.678;2024-02-15T14:22:24;12.18;98.05
65374;SHT31;52070;53.760;9.678;2024-02-15T14:24:55;12.18;98.06
65374;SHT31;52070;53.760;9.678;2024-02-15T14:27:22;12.20;98.04
65374;SHT31;52070;53.760;9.678;2024-02-15T14:29:49;12.17;98.07
65374;SHT31;52070;53.760;9.678;2024-02-15T14:32:30;12.18;98.08
65374;SHT31;52070;53.760;9.678;2024-02-15T14:35:14;12.16;98.04
65374;SHT31;52070;53.760;9.678;2024-02-15T14:37:44;12.18;98.06
65374;SHT31;52070;53.760;9.678;2024-02-15T14:40:12;12.18;98.03
65374;SHT31;52070;53.760;9.678;2024-02-15T14:42:41;12.18;98.06
65374;SHT31;52070;53.760;9.678;2024-02-15T14:45:09;12.20;98.06
65374;SHT31;52070;53.760;9.678;2024-02-15T14:47:36;12.18;98.05
65374;SHT31;52070;53.760;9.678;2024-02-15T14:50:04;12.17;98.06
65374;SHT31;52070;53.760;9.678;2024-02-15T14:52:34;12.17;98.09
65374;SHT31;52070;53.760;9.678;2024-02-15T14:55:04;12.18;98.11
65374;SHT31;52070;53.760;9.678;2024-02-15T14:57:33;12.20;98.12
65374;SHT31;52070;53.760;9.678;2024-02-15T15:00:01;12.18;98.19
65374;SHT31;52070;53.760;9.678;2024-02-15T15:02:29;12.20;98.21
65374;SHT31;52070;53.760;9.678;2024-02-15T15:04:57;12.20;98.28
65374;SHT31;52070;53.760;9.678;2024-02-15T15:07:41;12.18;98.25
65374;SHT31;52070;53.760;9.678;2024-02-15T15:10:27;12.17;98.30
65374;SHT31;52070;53.760;9.678;2024-02-15T15:13:12;12.18;98.31
65374;SHT31;52070;53.760;9.678;2024-02-15T15:15:39;12.17;98.38
65374;SHT31;52070;53.760;9.678;2024-02-15T15:18:06;12.16;98.36
65374;SHT31;52070;53.760;9.678;2024-02-15T15:20:35;12.16;98.33
65374;SHT31;52070;53.760;9.678;2024-02-15T15:23:03;12.14;98.39
65374;SHT31;52070;53.760;9.678;2024-02-15T15:25:34;12.12;98.42
65374;SHT31;52070;53.760;9.678;2024-02-15T15:28:02;12.13;98.45
65374;SHT31;52070;53.760;9.678;2024-02-15T15:30:30;12.12;98.46
65374;SHT31;52070;53.760;9.678;2024-02-15T15:32:57;12.12;98.50
65374;SHT31;52070;53.760;9.678;2024-02-15T15:35:25;12.08;98.50
65374;SHT31;52070;53.760;9.678;2024-02-15T15:37:53;12.12;98.52
65374;SHT31;52070;53.760;9.678;2024-02-15T15:40:20;12.10;98.50
65374;SHT31;52070;53.760;9.678;2024-02-15T15:42:48;12.08;98.51
65374;SHT31;52070;53.760;9.678;2024-02-15T15:45:15;12.08;98.50